Time;durP1;ratioP1;P1;durP2;ratioP2;P2;SDS_P1;SDS_P2;PMS_P1;PMS_P2;Temp;Humidity;BMP_temperature;BMP_pressure;BME280_temperature;BME280_humidity;BME280_pressure;Samples;Min_cycle;Max_cycle;Signal;HPM_P1;HPM_P2
2021/07/25 00:02:09;;;;;;;30.25;23.02;;;;;;;19.22;83.73;100730.53;5071353;28;20044;-58
2021/07/25 00:04:36;;;;;;;28.30;21.42;;;;;;;19.20;83.78;100730.09;5072192;28;20044;-59
2021/07/25 00:07:14;;;;;;;22.92;15.05;;;;;;;19.22;83.50;100734.13;5072035;28;20049;-58
2021/07/25 00:09:42;;;;;;;19.40;15.18;;;;;;;19.26;82.76;100734.28;5072193;28;20045;-56
2021/07/25 00:12:11;;;;;;;20.63;15.30;;;;;;;19.28;82.48;100746.63;5072040;28;20047;-57
2021/07/25 00:14:39;;;;;;;20.10;15.45;;;;;;;19.30;82.63;100736.06;5072164;28;20151;-57
2021/07/25 00:17:06;;;;;;;24.48;17.48;;;;;;;19.28;82.71;100734.75;5071386;28;20506;-59
2021/07/25 00:19:37;;;;;;;25.92;19.13;;;;;;;19.24;83.01;100725.50;5071880;28;20041;-54
2021/07/25 00:22:16;;;;;;;21.42;16.02;;;;;;;19.24;82.43;100719.97;5071955;28;20048;-54
2021/07/25 00:24:50;;;;;;;25.40;19.45;;;;;;;19.24;82.48;100717.22;5071623;28;20048;-58
2021/07/25 00:27:26;;;;;;;25.83;20.17;;;;;;;19.21;82.75;100707.63;5072043;28;20052;-58
2021/07/25 00:29:54;;;;;;;20.90;15.80;;;;;;;19.19;82.75;100706.34;5071571;28;20467;-55
2021/07/25 00:32:22;;;;;;;23.70;15.88;;;;;;;19.19;82.55;100698.06;5071583;28;20079;-58
2021/07/25 00:34:50;;;;;;;24.17;18.27;;;;;;;19.16;82.69;100703.09;5071711;28;20040;-57
2021/07/25 00:37:18;;;;;;;24.35;17.80;;;;;;;19.15;82.64;100698.72;5086888;28;20056;-55
2021/07/25 00:39:46;;;;;;;24.48;17.02;;;;;;;19.13;82.77;100698.25;5071446;28;20044;-58
2021/07/25 00:42:13;;;;;;;23.27;17.00;;;;;;;19.12;82.62;100699.41;5071855;28;20036;-57
2021/07/25 00:44:41;;;;;;;17.80;13.82;;;;;;;19.11;82.67;100697.75;5071097;28;20048;-56
2021/07/25 00:47:08;;;;;;;19.48;13.93;;;;;;;19.13;82.08;100698.25;5074601;28;20064;-57
2021/07/25 00:49:36;;;;;;;18.20;13.77;;;;;;;19.14;82.07;100708.13;5091108;28;20051;-57
2021/07/25 00:52:08;;;;;;;19.58;14.10;;;;;;;19.13;81.96;100695.47;5075515;28;20123;-56
2021/07/25 00:54:36;;;;;;;19.90;13.88;;;;;;;19.12;82.11;100709.59;5075355;28;20049;-57
2021/07/25 00:57:04;;;;;;;17.83;12.85;;;;;;;19.11;81.78;100696.94;5075301;28;20044;-54
2021/07/25 00:59:31;;;;;;;16.95;11.80;;;;;;;19.12;81.30;100699.41;5074833;28;20048;-57
2021/07/25 01:01:59;;;;;;;17.90;12.20;;;;;;;19.12;81.37;100704.91;5074665;28;20491;-57
2021/07/25 01:04:51;;;;;;;16.23;12.27;;;;;;;19.12;81.12;100698.56;5075034;28;20037;-57
2021/07/25 01:07:32;;;;;;;16.13;12.23;;;;;;;19.12;80.87;100685.59;5073328;28;20040;-57
2021/07/25 01:10:05;;;;;;;16.23;11.43;;;;;;;19.10;80.81;100689.81;5040371;28;20040;-57
2021/07/25 01:12:43;;;;;;;18.05;11.73;;;;;;;19.07;80.88;100683.00;5074958;28;20044;-55
2021/07/25 01:15:20;;;;;;;13.73;10.93;;;;;;;19.08;80.67;100681.84;5074288;28;20044;-56
2021/07/25 01:17:47;;;;;;;14.50;10.80;;;;;;;19.10;80.48;100684.28;5040572;28;20441;-57
2021/07/25 01:20:15;;;;;;;12.73;9.70;;;;;;;19.06;80.51;100686.88;5074894;28;20048;-56
2021/07/25 01:22:44;;;;;;;20.05;11.20;;;;;;;19.07;80.46;100679.41;5056686;28;20044;-57
2021/07/25 01:25:17;;;;;;;17.60;11.57;;;;;;;19.04;80.31;100680.88;5056789;28;20052;-57
2021/07/25 01:27:51;;;;;;;14.50;10.63;;;;;;;19.06;80.32;100675.03;5043578;28;20072;-57
2021/07/25 01:30:22;;;;;;;13.68;9.95;;;;;;;19.05;80.18;100682.50;5074333;28;20048;-57
2021/07/25 01:32:53;;;;;;;16.25;10.70;;;;;;;19.01;80.41;100681.53;5057194;28;20036;-57
2021/07/25 01:35:22;;;;;;;15.13;10.15;;;;;;;19.02;80.33;100677.63;5056795;28;20060;-57
2021/07/25 01:37:50;;;;;;;12.65;8.70;;;;;;;19.01;80.30;100681.53;5056835;28;20055;-58
2021/07/25 01:40:24;;;;;;;16.33;10.38;;;;;;;18.99;80.47;100683.81;5056840;28;20053;-57
2021/07/25 01:42:52;;;;;;;13.88;9.35;;;;;;;18.98;80.23;100679.44;5073989;28;20055;-57
2021/07/25 01:45:20;;;;;;;15.63;10.60;;;;;;;18.95;80.41;100688.38;5074111;28;20045;-55
2021/07/25 01:47:48;;;;;;;13.27;10.05;;;;;;;18.92;80.26;100684.31;5074418;28;20044;-58
2021/07/25 01:50:16;;;;;;;13.20;10.13;;;;;;;18.91;80.40;100681.91;5074636;28;20403;-56
2021/07/25 01:52:44;;;;;;;12.35;8.85;;;;;;;18.92;80.10;100683.50;5074094;28;20068;-55
2021/07/25 01:55:12;;;;;;;13.38;8.50;;;;;;;18.92;80.04;100686.25;5074546;28;20052;-56
2021/07/25 01:57:40;;;;;;;13.07;8.75;;;;;;;18.94;80.01;100679.28;5073281;28;20048;-55
2021/07/25 02:00:09;;;;;;;19.00;10.30;;;;;;;18.92;80.06;100683.50;5074233;28;20036;-57
2021/07/25 02:02:36;;;;;;;13.60;9.07;;;;;;;18.90;79.92;100674.72;5074073;28;20131;-57
2021/07/25 02:05:05;;;;;;;13.43;9.68;;;;;;;18.88;79.77;100671.47;5074060;28;20048;-58
2021/07/25 02:07:33;;;;;;;13.18;8.35;;;;;;;18.87;80.01;100670.69;5074240;28;20154;-53
2021/07/25 02:10:00;;;;;;;12.75;8.85;;;;;;;18.85;79.78;100675.72;5056043;28;20047;-56
2021/07/25 02:12:28;;;;;;;12.30;9.50;;;;;;;18.84;79.93;100681.59;5073616;28;20124;-58
2021/07/25 02:14:56;;;;;;;12.63;8.60;;;;;;;18.84;79.70;100667.78;5073571;28;20037;-57
2021/07/25 02:17:23;;;;;;;13.90;9.32;;;;;;;18.86;79.88;100673.78;5073537;28;20407;-58
2021/07/25 02:19:51;;;;;;;12.32;8.77;;;;;;;18.87;79.68;100667.13;5073733;28;20053;-57
2021/07/25 02:22:18;;;;;;;13.65;8.85;;;;;;;18.86;79.49;100668.28;5074055;28;20040;-55
2021/07/25 02:24:46;;;;;;;14.50;8.88;;;;;;;18.85;79.67;100661.09;5073905;28;20051;-57
2021/07/25 02:27:14;;;;;;;14.07;9.27;;;;;;;18.87;79.63;100656.88;5073070;28;20516;-53
2021/07/25 02:29:41;;;;;;;12.38;8.88;;;;;;;18.86;79.60;100665.50;5073466;28;20053;-56
2021/07/25 02:32:09;;;;;;;12.73;9.00;;;;;;;18.85;79.63;100647.31;5073267;28;20043;-55
2021/07/25 02:34:38;;;;;;;12.48;8.80;;;;;;;18.85;79.59;100652.81;5073665;28;20051;-56
2021/07/25 02:37:05;;;;;;;13.52;9.60;;;;;;;18.84;79.57;100648.47;5073239;28;20418;-56
2021/07/25 02:39:33;;;;;;;11.73;8.32;;;;;;;18.82;79.38;100639.69;5073404;28;20151;-56
2021/07/25 02:42:00;;;;;;;11.63;7.90;;;;;;;18.83;79.46;100644.06;5072879;28;20048;-57
2021/07/25 02:44:28;;;;;;;11.00;8.13;;;;;;;18.84;79.40;100642.94;5072863;28;20037;-52
2021/07/25 02:46:56;;;;;;;13.77;8.55;;;;;;;18.84;79.12;100648.47;5073383;28;20051;-55
2021/07/25 02:49:23;;;;;;;12.65;8.48;;;;;;;18.88;79.01;100650.22;5073016;28;20040;-55
2021/07/25 02:51:51;;;;;;;13.38;9.48;;;;;;;18.92;78.66;100655.91;5073138;28;20045;-58
2021/07/25 02:54:18;;;;;;;12.52;8.65;;;;;;;18.94;78.67;100656.38;5055100;28;20040;-57
2021/07/25 02:56:46;;;;;;;10.10;7.40;;;;;;;18.91;78.69;100649.56;5072560;28;20048;-56
2021/07/25 02:59:13;;;;;;;12.68;9.38;;;;;;;18.89;78.48;100651.03;5072662;28;20398;-56
2021/07/25 03:01:41;;;;;;;13.98;8.32;;;;;;;18.84;78.63;100648.47;5073104;28;20052;-58
2021/07/25 03:04:09;;;;;;;18.08;8.25;;;;;;;18.82;78.74;100647.97;5072824;28;20040;-56
2021/07/25 03:06:36;;;;;;;11.05;8.27;;;;;;;18.76;78.87;100644.56;5072842;28;20542;-56
2021/07/25 03:09:04;;;;;;;11.38;7.85;;;;;;;18.73;78.88;100647.94;5072720;28;20056;-56
2021/07/25 03:11:31;;;;;;;15.73;9.10;;;;;;;18.71;78.96;100645.53;5072472;28;20063;-57
2021/07/25 03:13:59;;;;;;;14.48;9.68;;;;;;;18.68;78.82;100651.69;5072529;28;20051;-52
2021/07/25 03:16:26;;;;;;;9.23;6.93;;;;;;;18.65;79.04;100651.53;5072347;28;20048;-57
2021/07/25 03:18:54;;;;;;;12.20;8.85;;;;;;;18.64;79.14;100653.50;5072581;28;20118;-57
2021/07/25 03:21:21;;;;;;;14.25;9.38;;;;;;;18.61;79.12;100643.09;5072504;28;20044;-54
2021/07/25 03:23:49;;;;;;;13.32;8.63;;;;;;;18.59;79.08;100641.78;5072142;28;20044;-56
2021/07/25 03:26:17;;;;;;;10.77;7.63;;;;;;;18.59;79.23;100639.03;5072277;28;20048;-57
2021/07/25 03:28:45;;;;;;;13.05;8.32;;;;;;;18.58;79.22;100634.66;5072489;28;20581;-58
2021/07/25 03:31:12;;;;;;;10.60;6.97;;;;;;;18.58;79.28;100638.22;5072650;28;20063;-56
2021/07/25 03:33:40;;;;;;;10.40;7.18;;;;;;;18.60;79.11;100638.72;5072553;28;20040;-57
2021/07/25 03:36:08;;;;;;;12.63;8.88;;;;;;;18.59;79.11;100639.88;5072592;28;20098;-55
2021/07/25 03:38:36;;;;;;;11.52;7.32;;;;;;;18.60;79.05;100638.72;5071971;28;20037;-56
2021/07/25 03:41:05;;;;;;;11.13;7.82;;;;;;;18.61;78.94;100640.31;5072323;28;20044;-54
2021/07/25 03:43:33;;;;;;;9.73;6.65;;;;;;;18.61;78.74;100637.56;5072464;28;20380;-55
2021/07/25 03:46:01;;;;;;;10.75;6.85;;;;;;;18.58;78.81;100638.22;5071877;28;20094;-57
2021/07/25 03:48:29;;;;;;;9.85;7.32;;;;;;;18.57;78.66;100628.34;5072407;28;20056;-58
2021/07/25 03:50:56;;;;;;;10.10;6.72;;;;;;;18.56;78.63;100639.69;5054604;28;20441;-58
2021/07/25 03:53:24;;;;;;;10.63;7.50;;;;;;;18.55;78.84;100635.31;5054249;28;20066;-54
2021/07/25 03:55:51;;;;;;;12.45;7.10;;;;;;;18.57;78.71;100638.53;5071643;28;20040;-56
2021/07/25 03:58:19;;;;;;;11.15;7.32;;;;;;;18.57;78.64;100638.53;5072269;28;20041;-60
2021/07/25 04:00:46;;;;;;;10.38;7.28;;;;;;;18.56;78.78;100640.50;5071881;28;20048;-54
2021/07/25 04:03:14;;;;;;;14.85;7.00;;;;;;;18.57;78.64;100644.06;5072001;28;20040;-57
2021/07/25 04:05:42;;;;;;;10.30;6.68;;;;;;;18.58;78.67;100646.50;5054038;28;20497;-56
2021/07/25 04:08:10;;;;;;;9.00;6.57;;;;;;;18.58;78.32;100641.00;5071888;28;20055;-54
2021/07/25 04:10:41;;;;;;;12.48;7.10;;;;;;;18.59;78.38;100642.63;5071868;28;20415;-57
2021/07/25 04:13:10;;;;;;;10.90;6.57;;;;;;;18.57;78.21;100641.31;5072019;28;20040;-56
2021/07/25 04:15:42;;;;;;;12.57;7.90;;;;;;;18.54;78.20;100634.50;5071663;28;20384;-59
2021/07/25 04:18:10;;;;;;;10.93;7.22;;;;;;;18.55;78.30;100636.13;5054193;28;20037;-59
2021/07/25 04:20:37;;;;;;;12.30;6.88;;;;;;;18.53;78.32;100639.19;5072529;28;20047;-60
2021/07/25 04:23:08;;;;;;;10.55;6.38;;;;;;;18.56;78.44;100643.25;5075648;28;20040;-59
2021/07/25 04:25:35;;;;;;;9.77;6.65;;;;;;;18.58;78.25;100646.50;5076016;28;20517;-58
2021/07/25 04:28:04;;;;;;;10.90;7.28;;;;;;;18.57;77.97;100639.38;5076119;28;20044;-60
2021/07/25 04:30:33;;;;;;;10.10;6.88;;;;;;;18.56;77.90;100643.25;5057773;28;20121;-59
2021/07/25 04:33:04;;;;;;;16.77;7.57;;;;;;;18.54;78.07;100648.28;5076033;28;20047;-60
2021/07/25 04:35:33;;;;;;;9.90;6.28;;;;;;;18.53;77.84;100650.25;5075844;28;20040;-59
2021/07/25 04:38:01;;;;;;;13.70;8.02;;;;;;;18.51;77.64;100643.44;5075194;28;20123;-55
2021/07/25 04:40:30;;;;;;;9.27;6.03;;;;;;;18.51;77.94;100640.66;5057793;28;20044;-58
2021/07/25 04:42:59;;;;;;;10.35;6.65;;;;;;;18.52;77.55;100637.59;5075959;28;20048;-56
2021/07/25 04:45:56;;;;;;;11.13;7.63;;;;;;;18.51;77.76;100652.50;5075622;28;20469;-59
2021/07/25 04:48:33;;;;;;;11.50;6.50;;;;;;;18.52;77.51;100642.31;5057589;28;20071;-57
2021/07/25 04:51:05;;;;;;;9.13;6.10;;;;;;;18.52;77.52;100645.06;5057744;28;20119;-57
2021/07/25 04:53:43;;;;;;;12.63;7.57;;;;;;;18.51;77.62;100647.00;5075237;28;20485;-60
2021/07/25 04:56:13;;;;;;;9.48;6.55;;;;;;;18.54;77.64;100651.03;5075244;28;20070;-60
2021/07/25 04:58:56;;;;;;;10.27;6.60;;;;;;;18.56;77.75;100648.78;5075156;28;20573;-59
2021/07/25 05:01:27;;;;;;;10.77;6.75;;;;;;;18.59;77.46;100648.16;5043696;28;20039;-59
2021/07/25 05:03:55;;;;;;;12.30;6.50;;;;;;;18.62;77.52;100654.97;5075539;28;20067;-60
2021/07/25 05:06:23;;;;;;;8.93;6.15;;;;;;;18.63;77.25;100649.09;5074677;28;20080;-60
2021/07/25 05:08:51;;;;;;;12.00;7.15;;;;;;;18.63;77.18;100646.34;5075164;28;20040;-57
2021/07/25 05:11:26;;;;;;;12.15;7.47;;;;;;;18.65;77.17;100646.03;5074915;28;20048;-61
2021/07/25 05:13:58;;;;;;;10.40;6.35;;;;;;;18.65;76.82;100657.88;5074752;28;20486;-58
2021/07/25 05:16:41;;;;;;;11.98;7.53;;;;;;;18.64;76.97;100650.72;5074518;28;20044;-59
2021/07/25 05:19:41;;;;;;;19.42;8.98;;;;;;;18.64;76.95;100661.78;5063300;28;20037;-60
2021/07/25 05:22:11;;;;;;;14.73;7.60;;;;;;;18.63;76.94;100654.63;5074472;28;20048;-60
2021/07/25 05:24:44;;;;;;;13.23;7.93;;;;;;;18.62;77.18;100652.19;5074810;28;20053;-59
2021/07/25 05:27:20;;;;;;;12.23;7.90;;;;;;;18.61;77.21;100656.09;5074762;28;20368;-61
2021/07/25 05:29:49;;;;;;;12.00;7.00;;;;;;;18.59;77.16;100659.19;5074639;28;20052;-58
2021/07/25 05:32:18;;;;;;;10.10;6.43;;;;;;;18.61;77.42;100665.16;5073124;28;20028;-61
2021/07/25 05:34:47;;;;;;;12.70;7.50;;;;;;;18.66;77.13;100665.00;5056305;28;20076;-54
2021/07/25 05:37:14;;;;;;;13.32;7.80;;;;;;;18.71;76.99;100672.28;5074277;28;20080;-60
2021/07/25 05:39:42;;;;;;;10.93;7.53;;;;;;;18.70;77.05;100665.97;5074571;28;20044;-60
2021/07/25 05:42:10;;;;;;;11.85;7.70;;;;;;;18.71;77.26;100670.38;5074270;28;20044;-60
2021/07/25 05:44:38;;;;;;;12.40;7.57;;;;;;;18.69;77.16;100675.41;5074383;28;20040;-61
2021/07/25 05:47:05;;;;;;;11.20;7.18;;;;;;;18.70;77.20;100671.50;5074085;28;20048;-61
2021/07/25 05:49:33;;;;;;;14.75;8.68;;;;;;;18.70;77.19;100662.41;5074074;28;20060;-59
2021/07/25 05:52:01;;;;;;;12.55;8.00;;;;;;;18.71;77.32;100667.59;5074246;28;20052;-60
2021/07/25 05:54:29;;;;;;;13.07;7.80;;;;;;;18.72;77.40;100663.69;5073789;28;20098;-60
2021/07/25 05:56:57;;;;;;;13.02;7.30;;;;;;;18.76;77.38;100677.69;5074067;28;20044;-60
2021/07/25 05:59:24;;;;;;;14.18;7.50;;;;;;;18.81;77.32;100687.72;5055838;28;20048;-60
2021/07/25 06:01:52;;;;;;;12.55;7.78;;;;;;;18.87;77.06;100675.41;5073984;28;20494;-58
2021/07/25 06:04:20;;;;;;;12.15;7.70;;;;;;;18.92;76.86;100672.47;5073182;28;20483;-59
2021/07/25 06:06:47;;;;;;;14.65;6.88;;;;;;;18.90;77.05;100674.72;5056004;28;20495;-58
2021/07/25 06:09:15;;;;;;;10.25;6.10;;;;;;;18.96;76.23;100670.69;5073985;28;20044;-58
2021/07/25 06:11:43;;;;;;;10.07;6.47;;;;;;;18.97;76.38;100675.03;5074204;28;20048;-59
2021/07/25 06:14:11;;;;;;;10.27;6.65;;;;;;;18.97;76.78;100672.28;5074054;28;20048;-58
2021/07/25 06:16:38;;;;;;;12.88;7.05;;;;;;;18.96;77.14;100670.69;5073165;28;20115;-57
2021/07/25 06:19:06;;;;;;;10.68;6.88;;;;;;;18.94;77.83;100670.19;5073382;28;20090;-58
2021/07/25 06:21:33;;;;;;;15.23;7.43;;;;;;;18.93;77.76;100663.88;5078511;28;20050;-56
2021/07/25 06:24:01;;;;;;;11.45;7.15;;;;;;;18.94;77.56;100659.16;5073391;28;20041;-58
2021/07/25 06:26:33;;;;;;;10.52;6.35;;;;;;;18.97;77.84;100652.97;5073633;28;20044;-58
2021/07/25 06:29:01;;;;;;;17.38;9.27;;;;;;;19.00;77.90;100657.84;5073226;28;20062;-59
2021/07/25 06:31:28;;;;;;;12.98;7.40;;;;;;;19.06;77.63;100658.47;5072727;28;20078;-59
2021/07/25 06:33:59;;;;;;;12.07;7.25;;;;;;;19.05;77.71;100652.13;5072465;28;20032;-59
2021/07/25 06:36:27;;;;;;;10.25;7.00;;;;;;;19.05;77.85;100656.81;5072462;28;20048;-58
2021/07/25 06:38:54;;;;;;;11.27;7.65;;;;;;;19.07;77.82;100657.31;5072321;28;20553;-57
2021/07/25 06:41:22;;;;;;;12.02;6.38;;;;;;;19.09;77.38;100661.38;5073343;28;20044;-57
2021/07/25 06:43:49;;;;;;;13.07;8.95;;;;;;;19.13;77.85;100662.34;5072072;28;20052;-57
2021/07/25 06:46:17;;;;;;;8.98;6.13;;;;;;;19.13;77.40;100659.56;5072646;28;20383;-54
2021/07/25 06:48:44;;;;;;;12.93;8.02;;;;;;;19.16;77.69;100666.38;5072297;28;20044;-55
2021/07/25 06:51:12;;;;;;;14.57;7.72;;;;;;;19.17;78.19;100662.50;5063815;28;20036;-57
2021/07/25 06:53:40;;;;;;;13.68;9.07;;;;;;;19.20;78.28;100664.59;5072594;28;20067;-57
2021/07/25 06:56:08;;;;;;;12.50;6.78;;;;;;;19.27;77.15;100666.84;5072682;28;20411;-57
2021/07/25 06:58:36;;;;;;;13.30;7.07;;;;;;;19.34;76.66;100661.63;5072801;28;20036;-56
2021/07/25 07:01:03;;;;;;;12.18;6.80;;;;;;;19.40;75.91;100660.28;5072112;28;20043;-55
2021/07/25 07:03:31;;;;;;;12.80;7.28;;;;;;;19.42;76.36;100660.78;5054409;28;20071;-58
2021/07/25 07:05:59;;;;;;;13.07;9.50;;;;;;;19.40;77.20;100665.81;5072647;28;20041;-56
2021/07/25 07:08:26;;;;;;;13.55;9.48;;;;;;;19.43;77.09;100667.91;5072325;28;20044;-58
2021/07/25 07:10:54;;;;;;;15.13;8.23;;;;;;;19.50;77.43;100665.44;5072382;28;20040;-56
2021/07/25 07:13:21;;;;;;;14.80;9.30;;;;;;;19.55;76.50;100668.03;5072053;28;20032;-56
2021/07/25 07:15:53;;;;;;;12.25;7.47;;;;;;;19.53;76.82;100656.50;5071907;28;20037;-55
2021/07/25 07:18:21;;;;;;;18.50;9.82;;;;;;;19.51;77.01;100669.84;5054238;28;20098;-57
2021/07/25 07:20:48;;;;;;;16.00;10.43;;;;;;;19.48;77.14;100681.56;5072029;28;20391;-56
2021/07/25 07:23:20;;;;;;;10.63;6.88;;;;;;;19.50;76.35;100672.91;5072083;28;20041;-58
2021/07/25 07:25:50;;;;;;;16.85;9.15;;;;;;;19.49;76.06;100674.88;5072305;28;20051;-58
2021/07/25 07:28:19;;;;;;;14.32;9.57;;;;;;;19.47;76.16;100677.16;5072075;28;20044;-58
2021/07/25 07:30:51;;;;;;;15.25;8.75;;;;;;;19.52;76.20;100673.41;5066187;28;20052;-58
2021/07/25 07:33:20;;;;;;;15.57;8.95;;;;;;;19.52;76.34;100678.94;5071668;28;20104;-58
2021/07/25 07:35:48;;;;;;;20.60;8.38;;;;;;;19.53;76.39;100675.84;5054700;28;20051;-57
2021/07/25 07:38:16;;;;;;;15.10;9.27;;;;;;;19.54;76.49;100677.44;5072211;28;20398;-56
2021/07/25 07:40:45;;;;;;;14.75;8.90;;;;;;;19.54;75.59;100671.13;5071971;28;20403;-56
2021/07/25 07:43:14;;;;;;;13.45;8.15;;;;;;;19.55;75.83;100676.31;5072222;28;20044;-53
2021/07/25 07:45:42;;;;;;;26.98;10.15;;;;;;;19.60;75.58;100675.31;5071594;28;20056;-56
2021/07/25 07:48:10;;;;;;;18.58;9.82;;;;;;;19.64;75.83;100678.22;5072236;28;20040;-52
2021/07/25 07:50:37;;;;;;;14.95;8.63;;;;;;;19.66;75.89;100673.19;5072083;28;20052;-56
2021/07/25 07:53:05;;;;;;;13.15;9.07;;;;;;;19.68;75.86;100682.00;5053981;28;20048;-54
2021/07/25 07:55:32;;;;;;;15.13;8.45;;;;;;;19.68;76.02;100679.22;5071661;28;20037;-56
2021/07/25 07:58:00;;;;;;;20.95;9.85;;;;;;;19.70;75.84;100686.03;5072279;28;20409;-56
2021/07/25 08:00:28;;;;;;;15.73;9.85;;;;;;;19.72;76.07;100683.75;5064087;28;20491;-56
2021/07/25 08:02:55;;;;;;;21.70;9.80;;;;;;;19.77;75.84;100683.56;5071833;28;20495;-56
2021/07/25 08:05:23;;;;;;;18.17;10.43;;;;;;;19.79;76.11;100677.69;5071987;28;20380;-53
2021/07/25 08:07:51;;;;;;;15.50;9.13;;;;;;;19.81;75.91;100686.44;5071661;28;20076;-57
2021/07/25 08:10:19;;;;;;;16.98;10.02;;;;;;;19.81;76.24;100680.91;5072009;28;20049;-57
2021/07/25 08:12:48;;;;;;;15.07;9.85;;;;;;;19.84;76.29;100679.44;5071803;28;20045;-56
2021/07/25 08:15:17;;;;;;;14.18;9.68;;;;;;;19.86;76.29;100683.50;5071202;28;20041;-56
2021/07/25 08:17:45;;;;;;;18.52;9.65;;;;;;;19.89;76.21;100682.84;5071802;28;20051;-54
2021/07/25 08:20:13;;;;;;;21.05;10.05;;;;;;;19.92;76.46;100679.41;5071751;28;20484;-58
2021/07/25 08:22:42;;;;;;;16.50;9.02;;;;;;;19.95;76.44;100686.22;5071514;28;20491;-56
2021/07/25 08:25:10;;;;;;;19.80;9.88;;;;;;;19.99;76.01;100682.44;5071916;28;20044;-57
2021/07/25 08:27:37;;;;;;;16.65;9.18;;;;;;;20.03;75.87;100690.06;5072127;28;20056;-57
2021/07/25 08:30:06;;;;;;;15.82;9.40;;;;;;;20.05;75.84;100690.56;5070992;28;20053;-57
2021/07/25 08:32:33;;;;;;;14.63;9.57;;;;;;;20.06;76.04;100697.69;5071761;28;20384;-58
2021/07/25 08:35:01;;;;;;;18.42;9.70;;;;;;;20.11;75.69;100694.75;5053828;28;20090;-58
2021/07/25 08:37:28;;;;;;;15.02;9.07;;;;;;;20.15;75.99;100701.22;5071493;28;20044;-56
2021/07/25 08:39:56;;;;;;;16.63;9.48;;;;;;;20.20;75.43;100698.25;5071958;28;20399;-56
2021/07/25 08:42:24;;;;;;;13.68;8.43;;;;;;;20.22;74.87;100696.75;5071572;28;20041;-57
2021/07/25 08:44:56;;;;;;;15.98;8.45;;;;;;;20.26;75.08;100704.41;5071129;28;20143;-57
2021/07/25 08:47:29;;;;;;;17.48;10.15;;;;;;;20.29;75.10;100706.50;5071384;28;20040;-57
2021/07/25 08:49:59;;;;;;;16.92;8.80;;;;;;;20.34;74.88;100692.44;5071591;28;20044;-54
2021/07/25 08:52:31;;;;;;;15.68;8.40;;;;;;;20.38;75.23;100696.97;5071325;28;20513;-56
2021/07/25 08:55:01;;;;;;;15.35;8.52;;;;;;;20.42;75.02;100706.25;5071655;28;20033;-57
2021/07/25 08:57:31;;;;;;;14.25;8.65;;;;;;;20.47;74.81;100708.00;5053257;28;20049;-59
2021/07/25 08:59:59;;;;;;;11.93;7.18;;;;;;;20.52;74.27;100701.44;5071213;28;20041;-59
2021/07/25 09:02:29;;;;;;;14.55;8.27;;;;;;;20.55;74.30;100704.38;5071086;28;20048;-58
2021/07/25 09:04:58;;;;;;;12.77;8.25;;;;;;;20.62;74.07;100709.38;5071727;28;20068;-56
2021/07/25 09:07:28;;;;;;;19.13;7.65;;;;;;;20.66;73.48;100710.31;5073570;28;20041;-56
2021/07/25 09:09:59;;;;;;;16.35;7.60;;;;;;;20.70;73.28;100707.66;5075136;28;20040;-57
2021/07/25 09:12:28;;;;;;;16.77;7.65;;;;;;;20.74;73.30;100712.19;5075122;28;20044;-57
2021/07/25 09:14:58;;;;;;;12.75;7.13;;;;;;;20.77;72.96;100717.03;5074402;28;20046;-58
2021/07/25 09:17:26;;;;;;;18.00;7.80;;;;;;;20.80;72.80;100708.03;5074930;28;20029;-57
2021/07/25 09:20:14;;;;;;;13.57;7.97;;;;;;;20.87;72.58;100710.25;5074975;28;20044;-57
2021/07/25 09:22:53;;;;;;;16.30;7.80;;;;;;;20.94;71.95;100704.97;5074806;28;20055;-58
2021/07/25 09:25:20;;;;;;;14.30;7.40;;;;;;;20.98;72.00;100705.94;5074629;28;20491;-58
2021/07/25 09:27:49;;;;;;;11.18;6.35;;;;;;;21.02;71.97;100701.34;5074481;28;20059;-59
2021/07/25 09:30:18;;;;;;;11.45;6.53;;;;;;;21.03;71.81;100697.41;5071405;28;20499;-58
2021/07/25 09:32:46;;;;;;;13.10;6.72;;;;;;;21.04;71.72;100700.97;5074564;28;20047;-58
2021/07/25 09:35:33;;;;;;;12.65;6.28;;;;;;;21.08;71.74;100699.13;5074492;28;20044;-57
2021/07/25 09:38:04;;;;;;;11.63;6.25;;;;;;;21.11;71.31;100704.00;5074553;28;20070;-58
2021/07/25 09:40:38;;;;;;;11.40;6.00;;;;;;;21.13;70.91;100700.88;5074108;28;20064;-57
2021/07/25 09:43:17;;;;;;;14.68;7.30;;;;;;;21.14;70.83;100697.78;5074567;28;20123;-58
2021/07/25 09:45:59;;;;;;;11.95;6.40;;;;;;;21.18;71.02;100698.69;5074315;28;20055;-57
2021/07/25 09:48:26;;;;;;;12.85;6.32;;;;;;;21.22;70.58;100693.28;5074565;28;20037;-58
2021/07/25 09:51:00;;;;;;;16.33;6.35;;;;;;;21.27;69.90;100696.63;5074593;28;20036;-58
2021/07/25 09:53:44;;;;;;;17.67;6.35;;;;;;;21.34;70.10;100703.59;5074333;28;20064;-57
2021/07/25 09:56:13;;;;;;;11.68;6.05;;;;;;;21.39;70.15;100704.19;5073955;28;20124;-57
2021/07/25 09:58:41;;;;;;;11.20;6.43;;;;;;;21.44;69.92;100697.63;5074207;28;20049;-58
2021/07/25 10:01:09;;;;;;;10.43;5.30;;;;;;;21.48;69.57;100701.34;5074093;28;20036;-56
2021/07/25 10:03:37;;;;;;;12.25;6.00;;;;;;;21.53;69.07;100698.34;5073894;28;20120;-57
2021/07/25 10:06:23;;;;;;;11.45;5.80;;;;;;;21.58;69.09;100689.78;5073839;28;20502;-58
2021/07/25 10:09:10;;;;;;;8.88;5.20;;;;;;;21.63;68.72;100697.06;5074277;28;20487;-58
2021/07/25 10:11:43;;;;;;;16.48;6.30;;;;;;;21.68;67.95;100700.41;5073754;28;20043;-58
2021/07/25 10:14:12;;;;;;;10.40;5.35;;;;;;;21.68;67.36;100686.53;5074150;28;20123;-58
2021/07/25 10:16:39;;;;;;;8.23;5.07;;;;;;;21.72;67.40;100686.69;5073356;28;20115;-58
2021/07/25 10:19:08;;;;;;;10.50;5.40;;;;;;;21.75;67.45;100687.94;5039123;28;20057;-57
2021/07/25 10:21:37;;;;;;;11.80;5.43;;;;;;;21.82;66.70;100682.63;5055906;28;20482;-57
2021/07/25 10:24:06;;;;;;;11.90;5.63;;;;;;;21.89;66.12;100677.31;5039224;28;20052;-58
2021/07/25 10:26:37;;;;;;;8.70;4.88;;;;;;;21.90;65.28;100688.03;5055775;28;20499;-58
2021/07/25 10:29:07;;;;;;;7.90;4.55;;;;;;;21.93;65.19;100686.53;5056204;28;20048;-58
2021/07/25 10:31:38;;;;;;;9.25;4.90;;;;;;;21.99;64.73;100687.13;5074098;28;20107;-60
2021/07/25 10:34:06;;;;;;;9.60;4.90;;;;;;;22.04;64.37;100689.66;5073244;28;20517;-58
2021/07/25 10:36:34;;;;;;;9.57;4.95;;;;;;;22.08;64.67;100687.78;5073626;28;20033;-58
2021/07/25 10:39:02;;;;;;;10.18;5.10;;;;;;;22.12;64.62;100683.94;5055638;28;20041;-58
2021/07/25 10:41:30;;;;;;;9.68;4.40;;;;;;;22.17;64.66;100687.66;5055632;28;20049;-58
2021/07/25 10:44:01;;;;;;;10.77;4.95;;;;;;;22.22;64.63;100681.88;5055674;28;20052;-58
2021/07/25 10:46:30;;;;;;;8.77;4.82;;;;;;;22.27;63.41;100684.41;5055501;28;20044;-56
2021/07/25 10:49:09;;;;;;;8.75;4.63;;;;;;;22.34;63.00;100684.63;5055633;28;20423;-56
2021/07/25 10:51:55;;;;;;;7.93;4.53;;;;;;;22.33;64.19;100683.03;5073039;28;20403;-57
2021/07/25 10:54:23;;;;;;;7.40;4.28;;;;;;;22.37;62.38;100686.72;5054943;28;20036;-57
2021/07/25 10:57:06;;;;;;;8.88;4.00;;;;;;;22.43;63.06;100685.28;5055197;28;20052;-57
2021/07/25 10:59:45;;;;;;;7.65;4.03;;;;;;;22.49;62.91;100683.91;5072807;28;20561;-57
2021/07/25 11:02:22;;;;;;;8.95;3.72;;;;;;;22.52;61.04;100672.09;5072741;28;20037;-57
2021/07/25 11:04:56;;;;;;;8.30;4.30;;;;;;;22.59;60.79;100676.25;5073167;28;20052;-57
2021/07/25 11:07:23;;;;;;;6.40;3.80;;;;;;;22.61;60.73;100683.06;5072973;28;20076;-59
2021/07/25 11:10:05;;;;;;;8.45;3.60;;;;;;;22.65;61.22;100685.91;5054646;28;20068;-57
2021/07/25 11:12:50;;;;;;;8.07;3.85;;;;;;;22.71;61.04;100676.19;5054697;28;20063;-56
2021/07/25 11:18:08;;;;;;;7.43;4.13;;;;;;;22.84;57.20;100669.38;5072796;28;20040;-58
2021/07/25 11:20:56;;;;;;;8.77;3.40;;;;;;;22.99;55.49;100673.38;5072465;28;20044;-54
2021/07/25 11:23:24;;;;;;;6.82;3.58;;;;;;;23.01;56.69;100673.03;5071617;28;20045;-58
2021/07/25 11:25:52;;;;;;;7.55;3.42;;;;;;;23.04;56.46;100672.31;5072507;28;20048;-60
2021/07/25 11:28:40;;;;;;;7.88;3.55;;;;;;;23.05;56.71;100676.72;5038204;28;20061;-61
2021/07/25 11:31:08;;;;;;;7.07;3.80;;;;;;;23.09;55.22;100672.88;5060349;28;20546;-58
2021/07/25 11:33:45;;;;;;;8.48;3.45;;;;;;;23.12;55.38;100669.38;5071867;28;20110;-59